createdAt,value
2023-07-18T00:01:29.116Z,16.46
2023-07-18T00:03:51.113Z,16.46
2023-07-18T00:06:13.101Z,16.44
2023-07-18T00:08:35.132Z,16.43
2023-07-18T00:10:56.956Z,16.44
2023-07-18T00:13:18.884Z,16.43
2023-07-18T00:15:40.726Z,16.45
2023-07-18T00:18:03.485Z,16.44
2023-07-18T00:20:26.988Z,16.42
2023-07-18T00:22:51.260Z,16.41
2023-07-18T00:25:14.636Z,16.37
2023-07-18T00:27:41.340Z,16.37
2023-07-18T00:30:04.192Z,16.36
2023-07-18T00:32:26.097Z,16.35
2023-07-18T00:34:49.376Z,16.32
2023-07-18T00:37:11.832Z,16.30
2023-07-18T00:39:33.638Z,16.25
2023-07-18T00:41:55.662Z,16.23
2023-07-18T00:44:17.509Z,16.21
2023-07-18T00:46:40.099Z,16.18
2023-07-18T00:49:02.059Z,16.14
2023-07-18T00:51:26.265Z,16.12
2023-07-18T00:53:48.103Z,16.08
2023-07-18T00:56:11.078Z,16.06
2023-07-18T00:58:33.037Z,16.03
2023-07-18T01:00:55.743Z,16.00
2023-07-18T01:03:18.581Z,15.99
2023-07-18T01:05:40.781Z,15.96
2023-07-18T01:08:04.477Z,15.96
2023-07-18T01:10:28.430Z,15.94
2023-07-18T01:12:54.080Z,15.93
2023-07-18T01:15:23.054Z,15.92
2023-07-18T01:17:46.627Z,15.90
2023-07-18T01:20:13.563Z,15.87
2023-07-18T01:22:36.550Z,15.85
2023-07-18T01:24:58.465Z,15.84
2023-07-18T01:27:20.244Z,15.84
2023-07-18T01:29:42.103Z,15.83
2023-07-18T01:32:04.303Z,15.82
2023-07-18T01:34:25.997Z,15.79
2023-07-18T01:36:49.046Z,15.79
2023-07-18T01:39:10.806Z,15.79
2023-07-18T01:41:32.752Z,15.80
2023-07-18T01:43:54.887Z,15.79
2023-07-18T01:46:16.731Z,15.78
2023-07-18T01:48:39.643Z,15.78
2023-07-18T01:51:02.725Z,15.79
2023-07-18T01:53:27.301Z,15.77
2023-07-18T01:55:50.901Z,15.76
2023-07-18T01:58:12.724Z,15.76
2023-07-18T02:00:36.450Z,15.74
2023-07-18T02:02:58.983Z,15.73
2023-07-18T02:05:26.479Z,15.70
2023-07-18T02:07:49.193Z,15.68
2023-07-18T02:10:12.184Z,15.65
2023-07-18T02:12:34.424Z,15.61
2023-07-18T02:14:56.685Z,15.56
2023-07-18T02:17:18.587Z,15.50
2023-07-18T02:19:41.251Z,15.45
2023-07-18T02:22:04.565Z,15.40
2023-07-18T02:24:27.624Z,15.37
2023-07-18T02:26:49.451Z,15.34
2023-07-18T02:29:11.399Z,15.32
2023-07-18T02:31:34.370Z,15.30
2023-07-18T02:33:56.102Z,15.28
2023-07-18T02:36:19.102Z,15.27
2023-07-18T02:38:40.775Z,15.24
2023-07-18T02:41:02.394Z,15.21
2023-07-18T02:43:25.443Z,15.18
2023-07-18T02:45:49.476Z,15.16
2023-07-18T02:48:12.179Z,15.13
2023-07-18T02:50:36.714Z,15.15
2023-07-18T02:52:59.920Z,15.14
2023-07-18T02:55:21.515Z,15.12
2023-07-18T02:57:43.337Z,15.07
2023-07-18T03:00:12.042Z,15.01
2023-07-18T03:02:34.386Z,14.95
2023-07-18T03:04:57.552Z,14.93
2023-07-18T03:07:19.454Z,14.90
2023-07-18T03:09:43.109Z,14.88
2023-07-18T03:12:07.316Z,14.84
2023-07-18T03:14:30.495Z,14.83
2023-07-18T03:16:52.221Z,14.81
2023-07-18T03:19:15.483Z,14.81
2023-07-18T03:21:37.534Z,14.81
2023-07-18T03:23:59.587Z,14.82
2023-07-18T03:26:21.404Z,14.81
2023-07-18T03:28:43.078Z,14.82
2023-07-18T03:31:04.707Z,14.82
2023-07-18T03:33:29.226Z,14.82
2023-07-18T03:35:51.217Z,14.79
2023-07-18T03:38:14.937Z,14.80
2023-07-18T03:40:36.780Z,14.80
2023-07-18T03:42:58.525Z,14.82
2023-07-18T03:45:20.220Z,14.83
2023-07-18T03:47:43.483Z,14.83
2023-07-18T03:50:05.785Z,14.83
2023-07-18T03:52:27.423Z,14.84
2023-07-18T03:54:49.106Z,14.84
2023-07-18T03:57:10.790Z,14.85
2023-07-18T03:59:32.518Z,14.84
2023-07-18T04:01:54.376Z,14.84
2023-07-18T04:04:16.632Z,14.86
2023-07-18T04:06:38.351Z,14.84
2023-07-18T04:09:01.195Z,14.83
2023-07-18T04:11:23.320Z,14.84
2023-07-18T04:13:44.999Z,14.84
2023-07-18T04:16:06.990Z,14.85
2023-07-18T04:18:28.742Z,14.85
2023-07-18T04:20:50.920Z,14.85
2023-07-18T04:23:12.671Z,14.85
2023-07-18T04:25:36.192Z,14.85
2023-07-18T04:27:58.091Z,14.83
2023-07-18T04:30:19.884Z,14.83
2023-07-18T04:32:43.316Z,14.83
2023-07-18T04:35:07.264Z,14.83
2023-07-18T04:37:29.379Z,14.84
2023-07-18T04:39:51.095Z,14.85
2023-07-18T04:42:13.420Z,14.88
2023-07-18T04:44:35.111Z,14.90
2023-07-18T04:46:56.870Z,14.91
2023-07-18T04:49:19.326Z,14.92
2023-07-18T04:51:41.394Z,14.92
2023-07-18T04:54:04.166Z,14.96
2023-07-18T04:56:25.843Z,15.00
2023-07-18T04:58:47.497Z,15.07
2023-07-18T05:01:09.578Z,15.11
2023-07-18T05:03:40.959Z,15.15
2023-07-18T05:06:13.721Z,15.22
2023-07-18T05:08:35.511Z,15.28
2023-07-18T05:11:02.748Z,15.31
2023-07-18T05:13:24.433Z,15.36
2023-07-18T05:15:46.292Z,15.44
2023-07-18T05:18:08.108Z,15.52
2023-07-18T05:20:30.859Z,15.60
2023-07-18T05:22:52.763Z,15.70
2023-07-18T05:25:17.743Z,15.77
2023-07-18T05:27:41.088Z,15.86
2023-07-18T05:30:05.643Z,15.93
2023-07-18T05:32:27.790Z,16.00
2023-07-18T05:34:50.879Z,16.12
2023-07-18T05:37:12.657Z,16.19
2023-07-18T05:39:34.449Z,16.25
2023-07-18T05:41:56.181Z,16.33
2023-07-18T05:44:17.866Z,16.40
2023-07-18T05:46:41.284Z,16.46
2023-07-18T05:49:03.269Z,16.53
2023-07-18T05:51:25.014Z,16.59
2023-07-18T05:53:46.771Z,16.68
2023-07-18T05:56:08.973Z,16.77
2023-07-18T05:58:30.688Z,16.83
2023-07-18T06:00:52.397Z,16.89
2023-07-18T06:03:14.173Z,16.98
2023-07-18T06:05:35.966Z,17.05
2023-07-18T06:07:57.777Z,17.14
2023-07-18T06:10:19.583Z,17.21
2023-07-18T06:12:41.265Z,17.28
2023-07-18T06:15:03.302Z,17.33
2023-07-18T06:17:24.945Z,17.39
2023-07-18T06:19:49.569Z,17.42
2023-07-18T06:22:11.743Z,17.49
2023-07-18T06:24:33.384Z,17.58
2023-07-18T06:26:55.198Z,17.65
2023-07-18T06:29:21.509Z,17.72
2023-07-18T06:31:43.356Z,17.79
2023-07-18T06:34:05.113Z,17.84
2023-07-18T06:36:27.113Z,17.89
2023-07-18T06:38:48.841Z,17.96
2023-07-18T06:41:10.826Z,18.06
2023-07-18T06:43:33.583Z,18.15
2023-07-18T06:45:55.221Z,18.24
2023-07-18T06:48:18.235Z,18.38
2023-07-18T06:50:48.253Z,18.51
2023-07-18T06:53:09.937Z,18.61
2023-07-18T06:55:32.604Z,18.75
2023-07-18T06:57:54.277Z,18.88
2023-07-18T07:00:16.900Z,19.02
2023-07-18T07:02:38.696Z,19.12
2023-07-18T07:05:01.237Z,19.24
2023-07-18T07:07:23.310Z,19.36
2023-07-18T07:09:45.444Z,19.47
2023-07-18T07:12:08.668Z,19.56
2023-07-18T07:14:30.510Z,19.70
2023-07-18T07:16:52.297Z,19.79
2023-07-18T07:19:14.580Z,19.95
2023-07-18T07:21:36.500Z,20.12
2023-07-18T07:23:59.640Z,20.25
2023-07-18T07:26:21.370Z,20.35
2023-07-18T07:28:43.092Z,20.45
2023-07-18T07:31:06.705Z,20.57
2023-07-18T07:33:28.705Z,20.67
2023-07-18T07:35:50.709Z,20.80
2023-07-18T07:38:12.663Z,20.92
2023-07-18T07:40:34.559Z,21.02
2023-07-18T07:42:56.552Z,21.11
2023-07-18T07:45:18.342Z,21.24
2023-07-18T07:47:40.706Z,21.35
2023-07-18T07:50:03.389Z,21.49
2023-07-18T07:52:25.345Z,21.59
2023-07-18T07:54:49.717Z,21.72
2023-07-18T07:57:11.778Z,21.82
2023-07-18T07:59:33.542Z,21.90
2023-07-18T08:01:55.657Z,21.99
2023-07-18T08:04:17.712Z,22.18
2023-07-18T08:06:40.609Z,22.31
2023-07-18T08:09:03.746Z,22.39
2023-07-18T08:11:25.479Z,22.51
2023-07-18T08:13:47.311Z,22.62
2023-07-18T08:16:09.092Z,22.69
2023-07-18T08:18:30.951Z,22.73
2023-07-18T08:20:52.672Z,22.77
2023-07-18T08:23:14.628Z,22.88
2023-07-18T08:25:36.476Z,23.00
2023-07-18T08:27:58.309Z,23.11
2023-07-18T08:30:21.078Z,23.20
2023-07-18T08:32:43.458Z,23.25
2023-07-18T08:35:06.393Z,23.30
2023-07-18T08:37:28.095Z,23.34
2023-07-18T08:39:49.833Z,23.46
2023-07-18T08:42:15.288Z,23.56
2023-07-18T08:44:37.923Z,23.62
2023-07-18T08:47:01.952Z,23.73
2023-07-18T08:49:28.899Z,23.84
2023-07-18T08:51:50.799Z,23.92
2023-07-18T08:54:16.399Z,23.95
2023-07-18T08:56:44.011Z,23.98
2023-07-18T08:59:05.734Z,24.04
2023-07-18T09:01:27.731Z,24.07
2023-07-18T09:03:49.636Z,24.11
2023-07-18T09:06:21.402Z,24.21
2023-07-18T09:08:44.880Z,24.25
2023-07-18T09:11:06.826Z,24.36
2023-07-18T09:13:28.736Z,24.48
2023-07-18T09:15:50.510Z,24.62
2023-07-18T09:18:14.161Z,24.74
2023-07-18T09:20:36.194Z,24.86
2023-07-18T09:23:06.338Z,24.98
2023-07-18T09:25:28.620Z,25.06
2023-07-18T09:27:58.682Z,25.10
2023-07-18T09:30:38.978Z,25.12
2023-07-18T09:33:04.964Z,25.14
2023-07-18T09:35:30.208Z,25.23
2023-07-18T09:37:51.992Z,25.31
2023-07-18T09:40:19.187Z,25.28
2023-07-18T09:42:47.420Z,25.21
2023-07-18T09:45:12.456Z,25.17
2023-07-18T09:47:35.607Z,25.19
2023-07-18T09:49:57.320Z,25.30
2023-07-18T09:52:27.646Z,25.36
2023-07-18T09:54:53.793Z,25.47
2023-07-18T09:57:17.642Z,25.61
2023-07-18T09:59:40.858Z,25.75
2023-07-18T10:02:07.143Z,25.79
2023-07-18T10:04:29.268Z,25.58
2023-07-18T10:06:56.744Z,25.37
2023-07-18T10:09:20.135Z,25.14
2023-07-18T10:12:00.404Z,25.03
2023-07-18T10:14:22.095Z,25.00
2023-07-18T10:16:43.968Z,25.07
2023-07-18T10:19:20.367Z,25.26
2023-07-18T10:21:47.502Z,25.47
2023-07-18T10:24:27.366Z,25.77
2023-07-18T10:26:53.450Z,25.88
2023-07-18T10:29:16.028Z,26.00
2023-07-18T10:31:40.543Z,26.12
2023-07-18T10:34:20.580Z,26.30
2023-07-18T10:36:56.194Z,26.48
2023-07-18T10:39:18.161Z,26.47
2023-07-18T10:41:46.806Z,26.33
2023-07-18T10:44:16.160Z,26.04
2023-07-18T10:46:39.737Z,25.72
2023-07-18T10:49:01.618Z,25.59
2023-07-18T10:51:23.426Z,25.70
2023-07-18T10:53:54.038Z,25.91
2023-07-18T10:56:25.041Z,26.18
2023-07-18T10:58:47.730Z,26.43
2023-07-18T11:01:11.001Z,26.63
2023-07-18T11:03:37.138Z,26.77
2023-07-18T11:05:58.933Z,26.89
2023-07-18T11:08:29.877Z,27.07
2023-07-18T11:11:00.477Z,27.03
2023-07-18T11:13:38.406Z,27.12
2023-07-18T11:16:08.165Z,27.15
2023-07-18T11:18:42.960Z,27.10
2023-07-18T11:21:09.243Z,27.10
2023-07-18T11:23:32.942Z,27.13
2023-07-18T11:25:54.692Z,27.13
2023-07-18T11:28:16.741Z,27.26
2023-07-18T11:30:38.538Z,27.39
2023-07-18T11:33:00.233Z,27.51
2023-07-18T11:35:24.276Z,27.49
2023-07-18T11:37:49.265Z,27.42
2023-07-18T11:40:12.391Z,27.45
2023-07-18T11:42:47.966Z,27.44
2023-07-18T11:45:11.124Z,27.58
2023-07-18T11:47:33.377Z,27.66
2023-07-18T11:49:55.162Z,27.60
2023-07-18T11:52:19.612Z,27.56
2023-07-18T11:54:42.475Z,27.67
2023-07-18T11:57:06.454Z,27.79
2023-07-18T11:59:28.295Z,27.91
2023-07-18T12:01:50.277Z,28.03
2023-07-18T12:04:16.132Z,28.02
2023-07-18T12:06:38.752Z,28.03
2023-07-18T12:09:00.488Z,28.09
2023-07-18T12:11:23.407Z,28.13
2023-07-18T12:13:45.245Z,27.99
2023-07-18T12:16:07.538Z,27.91
2023-07-18T12:18:29.269Z,27.96
2023-07-18T12:20:51.554Z,28.10
2023-07-18T12:23:13.320Z,28.16
2023-07-18T12:25:35.070Z,28.22
2023-07-18T12:27:56.693Z,28.27
2023-07-18T12:30:18.466Z,28.29
2023-07-18T12:32:40.160Z,28.27
2023-07-18T12:35:02.000Z,28.33
2023-07-18T12:37:24.378Z,28.28
2023-07-18T12:39:46.216Z,28.31
2023-07-18T12:42:08.096Z,28.32
2023-07-18T12:44:42.533Z,28.30
2023-07-18T12:47:04.954Z,28.33
2023-07-18T12:51:51.422Z,28.16
2023-07-18T12:54:13.175Z,28.00
2023-07-18T12:56:36.531Z,28.05
2023-07-18T12:58:58.615Z,28.13
2023-07-18T13:01:20.541Z,28.23
2023-07-18T13:03:42.437Z,28.33
2023-07-18T13:06:07.634Z,28.43
2023-07-18T13:08:29.832Z,28.54
2023-07-18T13:10:51.859Z,28.64
2023-07-18T13:13:13.538Z,28.76
2023-07-18T13:15:35.288Z,28.86
2023-07-18T13:17:57.093Z,28.91
2023-07-18T13:20:19.760Z,29.00
2023-07-18T13:22:41.525Z,29.06
2023-07-18T13:25:05.155Z,29.03
2023-07-18T13:27:26.916Z,29.10
2023-07-18T13:29:48.702Z,29.06
2023-07-18T13:32:10.559Z,29.10
2023-07-18T13:34:32.398Z,29.12
2023-07-18T13:36:54.053Z,29.14
2023-07-18T13:39:16.880Z,29.06
2023-07-18T13:41:38.725Z,29.15
2023-07-18T13:44:00.426Z,29.13
2023-07-18T13:46:22.511Z,29.16
2023-07-18T13:48:46.234Z,29.21
2023-07-18T13:51:08.357Z,29.29
2023-07-18T13:53:30.669Z,29.37
2023-07-18T13:55:52.632Z,29.41
2023-07-18T13:58:15.952Z,29.45
2023-07-18T14:00:38.234Z,29.44
2023-07-18T14:03:00.189Z,29.38
2023-07-18T14:05:22.355Z,29.31
2023-07-18T14:07:44.231Z,29.30
2023-07-18T14:10:07.761Z,29.25
2023-07-18T14:12:29.928Z,29.27
2023-07-18T14:14:51.800Z,29.29
2023-07-18T14:17:13.771Z,29.15
2023-07-18T14:19:36.139Z,28.98
2023-07-18T14:21:58.303Z,28.97
2023-07-18T14:24:20.288Z,28.98
2023-07-18T14:26:42.299Z,28.86
2023-07-18T14:29:05.056Z,28.65
2023-07-18T14:31:27.063Z,28.65
2023-07-18T14:34:04.736Z,28.77
2023-07-18T14:36:27.934Z,28.86
2023-07-18T14:38:50.078Z,28.92
2023-07-18T14:41:13.322Z,28.99
2023-07-18T14:43:35.327Z,29.03
2023-07-18T14:45:57.385Z,29.00
2023-07-18T14:48:19.493Z,28.98
2023-07-18T14:50:41.354Z,28.98
2023-07-18T14:53:03.464Z,29.02
2023-07-18T14:55:25.482Z,29.05
2023-07-18T14:57:47.636Z,29.13
2023-07-18T15:00:11.107Z,29.19
2023-07-18T15:02:33.073Z,29.22
2023-07-18T15:04:57.744Z,29.28
2023-07-18T15:07:19.739Z,29.28
2023-07-18T15:09:41.791Z,29.28
2023-07-18T15:12:04.202Z,29.21
2023-07-18T15:14:26.297Z,29.21
2023-07-18T15:16:48.191Z,29.25
2023-07-18T15:19:10.158Z,29.07
2023-07-18T15:21:32.062Z,28.75
2023-07-18T15:23:54.091Z,28.51
2023-07-18T15:26:16.592Z,28.50
2023-07-18T15:28:38.520Z,28.61
2023-07-18T15:31:00.492Z,28.77
2023-07-18T15:33:27.113Z,28.94
2023-07-18T15:35:49.419Z,29.05
2023-07-18T15:38:11.524Z,29.15
2023-07-18T15:40:33.820Z,29.23
2023-07-18T15:42:56.589Z,29.28
2023-07-18T15:45:18.501Z,29.35
2023-07-18T15:47:40.357Z,29.33
2023-07-18T15:50:02.498Z,29.39
2023-07-18T15:52:24.985Z,29.43
2023-07-18T15:54:46.935Z,29.41
2023-07-18T15:57:11.149Z,29.42
2023-07-18T15:59:34.692Z,29.45
2023-07-18T16:01:59.065Z,29.47
2023-07-18T16:04:21.914Z,29.47
2023-07-18T16:06:44.346Z,29.45
2023-07-18T16:09:06.695Z,29.42
2023-07-18T16:11:28.670Z,29.40
2023-07-18T16:13:50.872Z,29.42
2023-07-18T16:16:18.262Z,29.43
2023-07-18T16:19:04.739Z,29.39
2023-07-18T16:21:27.480Z,29.36
2023-07-18T16:23:50.384Z,29.40
2023-07-18T16:26:12.331Z,29.33
2023-07-18T16:28:34.286Z,29.21
2023-07-18T16:30:56.292Z,29.16
2023-07-18T16:33:18.317Z,28.92
2023-07-18T16:35:40.517Z,28.90
2023-07-18T16:38:03.813Z,28.97
2023-07-18T16:40:25.751Z,29.09
2023-07-18T16:42:47.573Z,29.09
2023-07-18T16:45:10.524Z,29.01
2023-07-18T16:47:32.406Z,28.83
2023-07-18T16:49:54.390Z,28.70
2023-07-18T16:52:16.429Z,28.59
2023-07-18T16:54:38.359Z,28.42
2023-07-18T16:57:00.176Z,28.29
2023-07-18T16:59:22.414Z,28.23
2023-07-18T17:01:44.304Z,28.05
2023-07-18T17:04:06.823Z,27.91
2023-07-18T17:06:31.078Z,27.77
2023-07-18T17:08:53.192Z,27.63
2023-07-18T17:11:15.729Z,27.44
2023-07-18T17:13:38.711Z,27.31
2023-07-18T17:16:01.381Z,27.17
2023-07-18T17:18:24.286Z,27.11
2023-07-18T17:20:47.673Z,27.07
2023-07-18T17:23:11.647Z,27.06
2023-07-18T17:25:34.726Z,27.13
2023-07-18T17:27:57.365Z,27.19
2023-07-18T17:30:20.118Z,27.21
2023-07-18T17:32:42.740Z,27.24
2023-07-18T17:35:05.853Z,27.38
2023-07-18T17:37:28.660Z,27.56
2023-07-18T17:39:51.414Z,27.66
2023-07-18T17:42:15.904Z,27.75
2023-07-18T17:44:38.515Z,27.72
2023-07-18T17:47:02.315Z,27.77
2023-07-18T17:49:25.138Z,27.77
2023-07-18T17:51:48.107Z,27.67
2023-07-18T17:54:10.811Z,27.57
2023-07-18T17:56:34.077Z,27.46
2023-07-18T17:58:59.538Z,27.35
2023-07-18T18:01:21.928Z,27.23
2023-07-18T18:03:44.191Z,27.12
2023-07-18T18:06:06.192Z,27.02
2023-07-18T18:08:28.328Z,26.93
2023-07-18T18:10:50.450Z,26.87
2023-07-18T18:13:13.840Z,26.81
2023-07-18T18:15:35.862Z,26.81
2023-07-18T18:17:57.853Z,26.80
2023-07-18T18:20:21.098Z,26.80
2023-07-18T18:22:43.004Z,26.76
2023-07-18T18:25:05.425Z,26.72
2023-07-18T18:27:27.381Z,26.66
2023-07-18T18:29:49.677Z,26.61
2023-07-18T18:32:12.767Z,26.55
2023-07-18T18:34:34.782Z,26.45
2023-07-18T18:36:56.801Z,26.36
2023-07-18T18:39:19.234Z,26.27
2023-07-18T18:41:41.179Z,26.13
2023-07-18T18:44:03.010Z,26.01
2023-07-18T18:46:24.929Z,25.92
2023-07-18T18:48:46.784Z,25.82
2023-07-18T18:51:09.594Z,25.73
2023-07-18T18:53:31.730Z,25.61
2023-07-18T18:55:54.302Z,25.52
2023-07-18T18:58:16.137Z,25.45
2023-07-18T19:00:39.583Z,25.36
2023-07-18T19:03:01.449Z,25.30
2023-07-18T19:05:23.334Z,25.26
2023-07-18T19:07:45.333Z,25.22
2023-07-18T19:10:07.782Z,25.22
2023-07-18T19:12:29.626Z,25.21
2023-07-18T19:14:51.668Z,25.17
2023-07-18T19:17:13.540Z,25.12
2023-07-18T19:19:41.587Z,25.04
2023-07-18T19:22:03.470Z,24.95
2023-07-18T19:24:25.383Z,24.85
2023-07-18T19:26:47.430Z,24.74
2023-07-18T19:29:09.784Z,24.65
2023-07-18T19:31:31.642Z,24.59
2023-07-18T19:33:53.543Z,24.52
2023-07-18T19:36:15.885Z,24.45
2023-07-18T19:38:40.177Z,24.38
2023-07-18T19:41:02.717Z,24.29
2023-07-18T19:43:24.730Z,24.21
2023-07-18T19:45:46.961Z,24.15
2023-07-18T19:48:08.900Z,24.08
2023-07-18T19:50:30.709Z,24.02
2023-07-18T19:52:52.561Z,23.93
2023-07-18T19:55:14.501Z,23.84
2023-07-18T19:57:36.507Z,23.77
2023-07-18T19:59:58.427Z,23.67
2023-07-18T20:02:20.419Z,23.59
2023-07-18T20:04:42.250Z,23.48
2023-07-18T20:07:04.548Z,23.43
2023-07-18T20:09:26.478Z,23.39
2023-07-18T20:11:48.285Z,23.35
2023-07-18T20:14:10.111Z,23.29
2023-07-18T20:16:32.772Z,23.25
2023-07-18T20:19:01.671Z,23.19
2023-07-18T20:21:24.176Z,23.07
2023-07-18T20:23:46.027Z,22.98
2023-07-18T20:26:10.207Z,22.89
2023-07-18T20:28:32.842Z,22.78
2023-07-18T20:30:56.002Z,22.67
2023-07-18T20:33:18.218Z,22.55
2023-07-18T20:35:40.041Z,22.45
2023-07-18T20:38:01.886Z,22.37
2023-07-18T20:40:24.061Z,22.28
2023-07-18T20:42:45.848Z,22.19
2023-07-18T20:45:08.464Z,22.12
2023-07-18T20:47:31.884Z,22.06
2023-07-18T20:49:53.652Z,22.00
2023-07-18T20:52:16.645Z,21.93
2023-07-18T20:54:39.375Z,21.88
2023-07-18T20:57:01.106Z,21.79
2023-07-18T20:59:22.921Z,21.74
2023-07-18T21:01:44.687Z,21.71
2023-07-18T21:04:06.589Z,21.69
2023-07-18T21:06:29.316Z,21.68
2023-07-18T21:08:51.587Z,21.63
2023-07-18T21:11:15.474Z,21.59
2023-07-18T21:13:37.260Z,21.54
2023-07-18T21:15:59.224Z,21.48
2023-07-18T21:18:21.146Z,21.46
2023-07-18T21:20:42.940Z,21.45
2023-07-18T21:23:05.109Z,21.46
2023-07-18T21:25:29.554Z,21.45
2023-07-18T21:27:51.384Z,21.42
2023-07-18T21:30:13.257Z,21.38
2023-07-18T21:32:36.217Z,21.34
2023-07-18T21:34:58.069Z,21.32
2023-07-18T21:37:19.876Z,21.33
2023-07-18T21:39:41.726Z,21.34
2023-07-18T21:42:04.589Z,21.32
2023-07-18T21:44:26.326Z,21.30
2023-07-18T21:46:48.176Z,21.29
2023-07-18T21:49:10.094Z,21.29
2023-07-18T21:51:32.143Z,21.30
2023-07-18T21:53:54.022Z,21.29
2023-07-18T21:56:15.857Z,21.27
2023-07-18T21:58:38.086Z,21.21
2023-07-18T22:00:59.949Z,21.14
2023-07-18T22:03:22.068Z,21.09
2023-07-18T22:05:43.962Z,21.03
2023-07-18T22:08:05.894Z,20.97
2023-07-18T22:10:27.838Z,20.89
2023-07-18T22:12:49.715Z,20.82
2023-07-18T22:15:11.594Z,20.73
2023-07-18T22:17:33.404Z,20.66
2023-07-18T22:19:55.314Z,20.58
2023-07-18T22:22:17.185Z,20.52
2023-07-18T22:24:39.141Z,20.48
2023-07-18T22:27:00.934Z,20.47
2023-07-18T22:29:22.759Z,20.44
2023-07-18T22:31:44.586Z,20.43
2023-07-18T22:34:06.799Z,20.42
2023-07-18T22:36:28.640Z,20.38
2023-07-18T22:38:50.449Z,20.35
2023-07-18T22:41:12.296Z,20.29
2023-07-18T22:43:34.163Z,20.27
2023-07-18T22:45:55.951Z,20.23
2023-07-18T22:48:22.499Z,20.20
2023-07-18T22:50:44.288Z,20.13
2023-07-18T22:53:06.977Z,20.06
2023-07-18T22:55:30.426Z,19.99
2023-07-18T22:57:52.221Z,19.91
2023-07-18T23:00:14.461Z,19.84
2023-07-18T23:02:37.102Z,19.75
2023-07-18T23:04:58.962Z,19.70
2023-07-18T23:07:20.787Z,19.63
2023-07-18T23:09:42.699Z,19.53
2023-07-18T23:12:05.130Z,19.45
2023-07-18T23:14:27.606Z,19.37
2023-07-18T23:16:51.097Z,19.32
2023-07-18T23:19:13.206Z,19.28
2023-07-18T23:21:34.986Z,19.24
2023-07-18T23:23:56.912Z,19.18
2023-07-18T23:26:18.696Z,19.12
2023-07-18T23:28:41.297Z,19.05
2023-07-18T23:31:05.921Z,18.99
2023-07-18T23:33:27.709Z,18.92
2023-07-18T23:35:49.364Z,18.86
2023-07-18T23:38:11.609Z,18.81
2023-07-18T23:40:33.344Z,18.76
2023-07-18T23:42:54.989Z,18.73
2023-07-18T23:45:17.020Z,18.68
2023-07-18T23:47:38.804Z,18.68
2023-07-18T23:50:00.692Z,18.67
2023-07-18T23:52:22.314Z,18.66
2023-07-18T23:54:44.052Z,18.63
2023-07-18T23:57:06.271Z,18.61
2023-07-18T23:59:27.969Z,18.60
